createdAt,value
2023-02-12T00:03:25.904Z,97147.09
2023-02-12T00:07:08.566Z,97130.38
2023-02-12T00:10:51.217Z,97132.16
2023-02-12T00:14:36.392Z,97134.53
2023-02-12T00:18:19.048Z,97140.91
2023-02-12T00:22:01.730Z,97130.22
2023-02-12T00:25:44.366Z,97125.47
2023-02-12T00:29:27.032Z,97126.16
2023-02-12T00:33:11.087Z,97128.91
2023-02-12T00:36:53.769Z,97126.91
2023-02-12T00:40:36.467Z,97127.28
2023-02-12T00:44:19.106Z,97123.16
2023-02-12T00:48:01.734Z,97128.81
2023-02-12T00:51:45.824Z,97113.66
2023-02-12T00:55:28.526Z,97119.59
2023-02-12T00:59:11.187Z,97130.50
2023-02-12T01:02:54.024Z,97142.34
2023-02-12T01:06:36.710Z,97133.47
2023-02-12T01:10:22.048Z,97141.19
2023-02-12T01:14:06.985Z,97132.66
2023-02-12T01:17:49.824Z,97118.44
2023-02-12T01:21:34.322Z,97122.69
2023-02-12T01:25:19.369Z,97112.97
2023-02-12T01:29:07.264Z,97116.53
2023-02-12T01:32:49.882Z,97128.59
2023-02-12T01:36:32.646Z,97135.94
2023-02-12T01:40:16.740Z,97139.97
2023-02-12T01:44:22.004Z,97134.53
2023-02-12T01:48:05.005Z,97136.19
2023-02-12T01:51:48.814Z,97134.88
2023-02-12T01:55:31.562Z,97132.63
2023-02-12T01:59:14.358Z,97139.16
2023-02-12T02:03:01.095Z,97129.94
2023-02-12T02:06:48.568Z,97131.00
2023-02-12T02:10:31.362Z,97133.13
2023-02-12T02:14:31.575Z,97123.66
2023-02-12T02:18:18.866Z,97116.69
2023-02-12T02:22:25.689Z,97122.13
2023-02-12T02:26:21.492Z,97128.19
2023-02-12T02:30:33.666Z,97129.59
2023-02-12T02:34:22.888Z,97121.56
2023-02-12T02:38:14.781Z,97123.22
2023-02-12T02:42:02.221Z,97119.91
2023-02-12T02:45:48.464Z,97114.94
2023-02-12T02:49:35.875Z,97123.69
2023-02-12T02:53:22.190Z,97108.31
2023-02-12T02:57:09.261Z,97106.66
2023-02-12T03:00:57.131Z,97105.00
2023-02-12T03:04:43.611Z,97106.19
2023-02-12T03:08:34.188Z,97109.88
2023-02-12T03:12:22.755Z,97105.72
2023-02-12T03:16:11.267Z,97114.25
2023-02-12T03:19:57.003Z,97119.44
2023-02-12T03:23:43.514Z,97129.63
2023-02-12T03:27:30.269Z,97127.97
2023-02-12T03:31:21.279Z,97129.97
2023-02-12T03:35:11.378Z,97145.59
2023-02-12T03:38:55.266Z,97124.75
2023-02-12T03:42:42.288Z,97130.22
2023-02-12T03:46:28.598Z,97131.28
2023-02-12T03:50:15.321Z,97135.66
2023-02-12T03:53:58.543Z,97126.78
2023-02-12T03:57:43.685Z,97126.06
2023-02-12T04:01:27.957Z,97131.53
2023-02-12T04:05:18.425Z,97136.97
2023-02-12T04:09:05.159Z,97137.56
2023-02-12T04:12:54.043Z,97147.84
2023-02-12T04:16:43.013Z,97148.31
2023-02-12T04:20:28.591Z,97159.09
2023-02-12T04:24:18.650Z,97152.56
2023-02-12T04:28:08.313Z,97150.91
2023-02-12T04:31:57.615Z,97164.66
2023-02-12T04:35:45.246Z,97167.72
2023-02-12T04:39:30.408Z,97164.41
2023-02-12T04:43:13.066Z,97172.09
2023-02-12T04:46:57.239Z,97169.63
2023-02-12T04:50:41.906Z,97167.63
2023-02-12T04:54:25.074Z,97166.31
2023-02-12T04:58:08.257Z,97168.91
2023-02-12T05:01:51.071Z,97175.53
2023-02-12T05:05:35.253Z,97175.53
2023-02-12T05:09:20.118Z,97166.06
2023-02-12T05:13:02.749Z,97169.75
2023-02-12T05:16:45.430Z,97167.25
2023-02-12T05:20:28.074Z,97176.84
2023-02-12T05:24:12.090Z,97186.44
2023-02-12T05:27:56.687Z,97186.31
2023-02-12T05:31:39.696Z,97188.56
2023-02-12T05:35:22.450Z,97182.53
2023-02-12T05:39:05.397Z,97189.28
2023-02-12T05:42:49.396Z,97193.78
2023-02-12T05:46:32.525Z,97199.22
2023-02-12T05:50:16.338Z,97195.66
2023-02-12T05:54:00.902Z,97197.91
2023-02-12T05:57:43.530Z,97192.22
2023-02-12T06:01:29.694Z,97194.13
2023-02-12T06:05:12.410Z,97196.59
2023-02-12T06:08:55.608Z,97194.69
2023-02-12T06:12:38.367Z,97191.16
2023-02-12T06:16:22.456Z,97207.47
2023-02-12T06:20:07.091Z,97203.47
2023-02-12T06:23:50.221Z,97207.50
2023-02-12T06:27:32.896Z,97211.06
2023-02-12T06:31:20.369Z,97221.72
2023-02-12T06:35:03.154Z,97224.19
2023-02-12T06:38:47.589Z,97215.69
2023-02-12T06:42:31.062Z,97224.06
2023-02-12T06:46:15.265Z,97225.63
2023-02-12T06:49:57.946Z,97231.19
2023-02-12T06:53:41.113Z,97238.63
2023-02-12T06:57:25.121Z,97228.81
2023-02-12T07:01:13.621Z,97229.66
2023-02-12T07:04:56.441Z,97231.44
2023-02-12T07:08:39.136Z,97231.44
2023-02-12T07:12:21.765Z,97234.97
2023-02-12T07:16:06.990Z,97236.66
2023-02-12T07:19:49.681Z,97236.97
2023-02-12T07:23:32.500Z,97239.69
2023-02-12T07:27:15.191Z,97232.84
2023-02-12T07:30:57.888Z,97231.19
2023-02-12T07:34:41.995Z,97229.28
2023-02-12T07:38:24.684Z,97224.66
2023-02-12T07:42:08.560Z,97221.09
2023-02-12T07:45:51.247Z,97223.63
2023-02-12T07:49:33.994Z,97220.06
2023-02-12T07:53:17.989Z,97219.56
2023-02-12T07:57:01.449Z,97209.50
2023-02-12T08:00:44.117Z,97218.59
2023-02-12T08:04:26.896Z,97221.66
2023-02-12T08:08:09.545Z,97228.78
2023-02-12T08:11:53.635Z,97220.97
2023-02-12T08:15:36.406Z,97224.25
2023-02-12T08:19:22.706Z,97231.34
2023-02-12T08:23:06.528Z,97219.47
2023-02-12T08:26:49.204Z,97222.53
2023-02-12T08:30:33.269Z,97228.09
2023-02-12T08:34:20.403Z,97230.34
2023-02-12T08:38:03.121Z,97228.44
2023-02-12T08:41:45.977Z,97231.50
2023-02-12T08:45:28.579Z,97212.97
2023-02-12T08:49:15.740Z,97224.31
2023-02-12T08:52:58.400Z,97220.13
2023-02-12T08:56:42.184Z,97217.13
2023-02-12T09:00:25.027Z,97211.41
2023-02-12T09:04:07.991Z,97215.16
2023-02-12T09:07:53.754Z,97211.66
2023-02-12T09:11:37.705Z,97206.53
2023-02-12T09:15:20.384Z,97218.13
2023-02-12T09:19:03.353Z,97219.69
2023-02-12T09:22:46.008Z,97224.13
2023-02-12T09:26:30.294Z,97220.03
2023-02-12T09:30:14.032Z,97219.16
2023-02-12T09:33:59.342Z,97225.38
2023-02-12T09:37:44.432Z,97228.16
2023-02-12T09:41:44.906Z,97222.13
2023-02-12T09:45:28.556Z,97223.22
2023-02-12T09:49:12.615Z,97220.47
2023-02-12T09:52:57.915Z,97225.47
2023-02-12T09:56:44.490Z,97217.81
2023-02-12T10:00:31.116Z,97217.00
2023-02-12T10:04:14.071Z,97222.09
2023-02-12T10:08:15.750Z,97229.66
2023-02-12T10:12:05.919Z,97223.75
2023-02-12T10:15:52.263Z,97230.22
2023-02-12T10:19:52.153Z,97235.47
2023-02-12T10:23:49.275Z,97229.94
2023-02-12T10:27:40.955Z,97224.75
2023-02-12T10:31:30.262Z,97227.75
2023-02-12T10:35:17.296Z,97219.72
2023-02-12T10:39:03.406Z,97228.81
2023-02-12T10:42:48.994Z,97218.06
2023-02-12T10:46:32.569Z,97215.00
2023-02-12T10:50:21.585Z,97216.13
2023-02-12T10:54:35.629Z,97224.16
2023-02-12T10:58:22.684Z,97219.47
2023-02-12T11:02:06.683Z,97209.00
2023-02-12T11:05:49.691Z,97204.19
2023-02-12T11:09:36.225Z,97214.25
2023-02-12T11:13:25.400Z,97210.66
2023-02-12T11:17:08.111Z,97209.84
2023-02-12T11:20:52.201Z,97209.59
2023-02-12T11:24:36.046Z,97207.78
2023-02-12T11:28:20.212Z,97204.06
2023-02-12T11:32:05.663Z,97212.91
2023-02-12T11:35:56.981Z,97196.88
2023-02-12T11:39:40.878Z,97188.81
2023-02-12T11:43:24.911Z,97193.91
2023-02-12T11:47:12.072Z,97181.66
2023-02-12T11:50:56.322Z,97188.97
2023-02-12T11:54:42.303Z,97194.91
2023-02-12T11:58:26.348Z,97185.56
2023-02-12T12:02:19.873Z,97181.69
2023-02-12T12:06:06.541Z,97178.59
2023-02-12T12:09:51.456Z,97174.88
2023-02-12T12:13:37.895Z,97171.19
2023-02-12T12:17:44.272Z,97176.63
2023-02-12T12:21:30.527Z,97162.00
2023-02-12T12:25:25.472Z,97167.09
2023-02-12T12:29:14.296Z,97165.25
2023-02-12T12:33:00.809Z,97164.91
2023-02-12T12:36:52.189Z,97159.00
2023-02-12T12:40:44.608Z,97158.53
2023-02-12T12:44:35.568Z,97152.69
2023-02-12T12:48:27.113Z,97152.56
2023-02-12T12:52:51.833Z,97142.97
2023-02-12T12:56:53.774Z,97145.44
2023-02-12T13:00:45.415Z,97146.31
2023-02-12T13:04:38.704Z,97139.88
2023-02-12T13:08:33.060Z,97129.47
2023-02-12T13:12:39.826Z,97141.44
2023-02-12T13:16:26.179Z,97134.88
2023-02-12T13:20:16.629Z,97133.34
2023-02-12T13:24:04.596Z,97134.91
2023-02-12T13:27:48.787Z,97139.66
2023-02-12T13:31:33.753Z,97130.59
2023-02-12T13:35:20.661Z,97137.16
2023-02-12T13:39:10.476Z,97139.19
2023-02-12T13:42:59.309Z,97133.69
2023-02-12T13:46:51.865Z,97130.59
2023-02-12T13:50:42.519Z,97130.50
2023-02-12T13:54:43.455Z,97127.44
2023-02-12T13:59:00.281Z,97122.31
2023-02-12T14:02:49.247Z,97118.06
2023-02-12T14:06:35.189Z,97123.59
2023-02-12T14:10:23.540Z,97124.75
2023-02-12T14:14:07.473Z,97123.84
2023-02-12T14:17:57.009Z,97128.72
2023-02-12T14:21:41.255Z,97121.19
2023-02-12T14:25:48.096Z,97124.81
2023-02-12T14:29:30.684Z,97124.75
2023-02-12T14:33:27.720Z,97122.56
2023-02-12T14:37:19.141Z,97128.97
2023-02-12T14:41:34.131Z,97122.69
2023-02-12T14:45:34.805Z,97120.91
2023-02-12T14:49:24.550Z,97130.97
2023-02-12T14:53:29.086Z,97122.56
2023-02-12T14:57:23.643Z,97124.09
2023-02-12T15:01:06.956Z,97123.72
2023-02-12T15:04:49.917Z,97123.41
2023-02-12T15:08:38.132Z,97125.56
2023-02-12T15:12:22.577Z,97115.13
2023-02-12T15:16:09.795Z,97112.84
2023-02-12T15:19:57.354Z,97110.22
2023-02-12T15:23:43.169Z,97106.28
2023-02-12T15:27:25.797Z,97096.91
2023-02-12T15:31:10.848Z,97102.81
2023-02-12T15:34:54.679Z,97107.63
2023-02-12T15:38:39.867Z,97091.28
2023-02-12T15:42:32.830Z,97100.56
2023-02-12T15:46:19.114Z,97096.97
2023-02-12T15:50:01.922Z,97101.25
2023-02-12T15:53:45.154Z,97102.56
2023-02-12T15:57:28.190Z,97105.38
2023-02-12T16:01:17.817Z,97100.59
2023-02-12T16:05:01.679Z,97102.38
2023-02-12T16:08:45.837Z,97108.41
2023-02-12T16:12:32.589Z,97099.81
2023-02-12T16:16:28.991Z,97105.63
2023-02-12T16:20:24.769Z,97111.09
2023-02-12T16:24:22.145Z,97099.72
2023-02-12T16:28:06.804Z,97095.97
2023-02-12T16:32:00.355Z,97107.59
2023-02-12T16:35:43.053Z,97114.63
2023-02-12T16:40:01.346Z,97117.69
2023-02-12T16:43:43.974Z,97117.63
2023-02-12T16:47:28.175Z,97121.97
2023-02-12T16:51:23.166Z,97124.41
2023-02-12T16:55:07.565Z,97123.88
2023-02-12T16:58:52.067Z,97125.31
2023-02-12T17:02:37.331Z,97125.47
2023-02-12T17:06:24.002Z,97125.38
2023-02-12T17:10:07.815Z,97127.03
2023-02-12T17:13:52.507Z,97123.59
2023-02-12T17:17:36.607Z,97131.03
2023-02-12T17:21:22.652Z,97135.19
2023-02-12T17:25:06.237Z,97129.69
2023-02-12T17:28:48.894Z,97140.84
2023-02-12T17:32:31.614Z,97129.28
2023-02-12T17:36:15.638Z,97128.88
2023-02-12T17:39:58.315Z,97134.19
2023-02-12T17:43:40.952Z,97136.94
2023-02-12T17:47:23.741Z,97141.75
2023-02-12T17:51:06.856Z,97142.88
2023-02-12T17:54:50.909Z,97134.59
2023-02-12T17:58:33.599Z,97141.59
2023-02-12T18:02:16.291Z,97141.72
2023-02-12T18:05:58.929Z,97144.44
2023-02-12T18:09:41.693Z,97144.53
2023-02-12T18:13:25.952Z,97139.13
2023-02-12T18:17:08.633Z,97147.63
2023-02-12T18:20:51.396Z,97132.44
2023-02-12T18:24:35.083Z,97147.22
2023-02-12T18:28:17.871Z,97148.22
2023-02-12T18:32:01.940Z,97140.72
2023-02-12T18:35:44.758Z,97142.63
2023-02-12T18:39:27.519Z,97134.13
2023-02-12T18:43:10.246Z,97136.72
2023-02-12T18:46:52.935Z,97133.28
2023-02-12T18:50:38.701Z,97134.13
2023-02-12T18:54:21.449Z,97137.69
2023-02-12T18:58:04.907Z,97134.25
2023-02-12T19:01:50.845Z,97138.88
2023-02-12T19:05:33.857Z,97133.34
2023-02-12T19:09:20.413Z,97139.22
2023-02-12T19:13:03.136Z,97135.34
2023-02-12T19:16:46.594Z,97131.59
2023-02-12T19:20:29.321Z,97133.84
2023-02-12T19:24:13.575Z,97137.66
2023-02-12T19:27:58.564Z,97137.91
2023-02-12T19:31:44.590Z,97140.06
2023-02-12T19:35:27.383Z,97138.91
2023-02-12T19:39:11.595Z,97138.34
2023-02-12T19:42:54.314Z,97127.81
2023-02-12T19:46:41.582Z,97130.69
2023-02-12T19:50:24.290Z,97130.22
2023-02-12T19:54:07.959Z,97130.72
2023-02-12T19:57:59.544Z,97128.84
2023-02-12T20:01:43.732Z,97121.50
2023-02-12T20:05:26.432Z,97126.00
2023-02-12T20:09:09.472Z,97122.94
2023-02-12T20:12:52.256Z,97125.78
2023-02-12T20:16:38.108Z,97122.22
2023-02-12T20:20:22.681Z,97127.69
2023-02-12T20:24:06.265Z,97127.94
2023-02-12T20:27:48.943Z,97128.19
2023-02-12T20:31:33.789Z,97127.00
2023-02-12T20:35:17.243Z,97129.50
2023-02-12T20:39:01.396Z,97137.19
2023-02-12T20:42:45.209Z,97141.81
2023-02-12T20:46:27.885Z,97137.66
2023-02-12T20:50:11.117Z,97135.19
2023-02-12T20:53:55.316Z,97129.25
2023-02-12T20:57:39.387Z,97140.75
2023-02-12T21:01:23.472Z,97150.59
2023-02-12T21:05:07.198Z,97142.19
2023-02-12T21:08:51.210Z,97153.06
2023-02-12T21:12:33.918Z,97148.09
2023-02-12T21:16:20.168Z,97147.28
2023-02-12T21:20:03.015Z,97149.03
2023-02-12T21:23:45.718Z,97140.75
2023-02-12T21:27:28.394Z,97154.22
2023-02-12T21:31:13.082Z,97148.31
2023-02-12T21:34:57.161Z,97145.22
2023-02-12T21:38:42.383Z,97142.97
2023-02-12T21:42:25.044Z,97164.88
2023-02-12T21:46:09.061Z,97160.50
2023-02-12T21:49:52.145Z,97161.31
2023-02-12T21:53:36.127Z,97150.91
2023-02-12T21:57:19.908Z,97156.13
2023-02-12T22:01:08.214Z,97162.97
2023-02-12T22:04:51.178Z,97159.44
2023-02-12T22:08:34.204Z,97158.84
2023-02-12T22:12:19.436Z,97156.69
2023-02-12T22:16:09.388Z,97160.34
2023-02-12T22:19:52.119Z,97160.47
2023-02-12T22:23:35.100Z,97154.31
2023-02-12T22:27:19.160Z,97163.19
2023-02-12T22:31:06.557Z,97172.28
2023-02-12T22:34:49.205Z,97175.84
2023-02-12T22:38:31.998Z,97169.28
2023-02-12T22:42:14.737Z,97179.19
2023-02-12T22:45:59.085Z,97175.44
2023-02-12T22:49:41.798Z,97168.19
2023-02-12T22:53:25.566Z,97169.84
2023-02-12T22:57:08.206Z,97170.69
2023-02-12T23:00:50.890Z,97170.09
2023-02-12T23:04:35.068Z,97158.38
2023-02-12T23:08:17.821Z,97162.13
2023-02-12T23:12:00.555Z,97165.69
2023-02-12T23:15:43.185Z,97157.41
2023-02-12T23:19:25.827Z,97170.41
2023-02-12T23:23:10.027Z,97168.50
2023-02-12T23:26:53.318Z,97165.19
2023-02-12T23:30:36.221Z,97153.13
2023-02-12T23:34:19.167Z,97160.22
2023-02-12T23:38:02.052Z,97156.91
2023-02-12T23:41:46.109Z,97159.84
2023-02-12T23:45:29.196Z,97144.47
2023-02-12T23:49:11.886Z,97142.00
2023-02-12T23:52:54.607Z,97148.25
2023-02-12T23:56:37.268Z,97145.75
